sensor_id;sensor_type;location;lat;lon;timestamp;temperature;humidity
7844;DHT22;3967;48.702;9.326;2024-01-15T00:00:57;-1.80;97.80
7844;DHT22;3967;48.702;9.326;2024-01-15T00:03:24;-1.80;97.90
7844;DHT22;3967;48.702;9.326;2024-01-15T00:05:51;-1.70;97.80
7844;DHT22;3967;48.702;9.326;2024-01-15T00:08:18;-1.70;97.50
7844;DHT22;3967;48.702;9.326;2024-01-15T00:10:45;-1.70;97.70
7844;DHT22;3967;48.702;9.326;2024-01-15T00:13:11;-1.60;97.20
7844;DHT22;3967;48.702;9.326;2024-01-15T00:15:38;-1.60;96.90
7844;DHT22;3967;48.702;9.326;2024-01-15T00:18:05;-1.50;96.70
7844;DHT22;3967;48.702;9.326;2024-01-15T00:20:33;-1.40;96.50
7844;DHT22;3967;48.702;9.326;2024-01-15T00:23:00;-1.40;96.30
7844;DHT22;3967;48.702;9.326;2024-01-15T00:25:27;-1.30;95.90
7844;DHT22;3967;48.702;9.326;2024-01-15T00:27:53;-1.30;95.50
7844;DHT22;3967;48.702;9.326;2024-01-15T00:30:20;-1.30;95.30
7844;DHT22;3967;48.702;9.326;2024-01-15T00:32:47;-1.30;95.40
7844;DHT22;3967;48.702;9.326;2024-01-15T00:35:14;-1.20;95.40
7844;DHT22;3967;48.702;9.326;2024-01-15T00:37:41;-1.20;95.30
7844;DHT22;3967;48.702;9.326;2024-01-15T00:40:08;-1.20;95.30
7844;DHT22;3967;48.702;9.326;2024-01-15T00:42:34;-1.20;95.30
7844;DHT22;3967;48.702;9.326;2024-01-15T00:45:01;-1.20;95.40
7844;DHT22;3967;48.702;9.326;2024-01-15T00:47:28;-1.20;95.40
7844;DHT22;3967;48.702;9.326;2024-01-15T00:49:55;-1.20;95.30
7844;DHT22;3967;48.702;9.326;2024-01-15T00:52:22;-1.20;95.10
7844;DHT22;3967;48.702;9.326;2024-01-15T00:54:48;-1.20;94.90
7844;DHT22;3967;48.702;9.326;2024-01-15T00:57:15;-1.10;95.00
7844;DHT22;3967;48.702;9.326;2024-01-15T00:59:42;-1.10;94.70
7844;DHT22;3967;48.702;9.326;2024-01-15T01:02:09;-1.10;94.60
7844;DHT22;3967;48.702;9.326;2024-01-15T01:04:36;-1.10;94.60
7844;DHT22;3967;48.702;9.326;2024-01-15T01:07:02;-1.10;94.60
7844;DHT22;3967;48.702;9.326;2024-01-15T01:09:30;-1.10;94.60
7844;DHT22;3967;48.702;9.326;2024-01-15T01:11:57;-1.10;94.70
7844;DHT22;3967;48.702;9.326;2024-01-15T01:14:24;-1.10;94.50
7844;DHT22;3967;48.702;9.326;2024-01-15T01:16:51;-1.10;94.50
7844;DHT22;3967;48.702;9.326;2024-01-15T01:19:17;-1.10;94.50
7844;DHT22;3967;48.702;9.326;2024-01-15T01:21:45;-1.10;94.30
7844;DHT22;3967;48.702;9.326;2024-01-15T01:24:12;-1.10;94.30
7844;DHT22;3967;48.702;9.326;2024-01-15T01:26:38;-1.10;94.10
7844;DHT22;3967;48.702;9.326;2024-01-15T01:29:05;-1.00;94.30
7844;DHT22;3967;48.702;9.326;2024-01-15T01:31:32;-1.10;94.20
7844;DHT22;3967;48.702;9.326;2024-01-15T01:33:59;-1.00;94.20
7844;DHT22;3967;48.702;9.326;2024-01-15T01:36:25;-1.00;94.10
7844;DHT22;3967;48.702;9.326;2024-01-15T01:38:53;-1.00;94.20
7844;DHT22;3967;48.702;9.326;2024-01-15T01:41:20;-1.00;94.40
7844;DHT22;3967;48.702;9.326;2024-01-15T01:43:46;-1.10;94.40
7844;DHT22;3967;48.702;9.326;2024-01-15T01:46:13;-1.00;94.60
7844;DHT22;3967;48.702;9.326;2024-01-15T01:48:40;-0.90;94.50
7844;DHT22;3967;48.702;9.326;2024-01-15T01:51:07;-1.00;94.40
7844;DHT22;3967;48.702;9.326;2024-01-15T01:53:35;-1.00;94.60
7844;DHT22;3967;48.702;9.326;2024-01-15T01:56:03;-1.00;94.50
7844;DHT22;3967;48.702;9.326;2024-01-15T01:58:32;-1.00;94.70
7844;DHT22;3967;48.702;9.326;2024-01-15T02:00:59;-1.00;94.90
7844;DHT22;3967;48.702;9.326;2024-01-15T02:03:27;-1.00;94.80
7844;DHT22;3967;48.702;9.326;2024-01-15T02:05:55;-0.90;94.90
7844;DHT22;3967;48.702;9.326;2024-01-15T02:08:22;-0.90;94.80
7844;DHT22;3967;48.702;9.326;2024-01-15T02:10:49;-0.90;95.00
7844;DHT22;3967;48.702;9.326;2024-01-15T02:13:17;-0.90;95.00
7844;DHT22;3967;48.702;9.326;2024-01-15T02:15:44;-1.00;95.20
7844;DHT22;3967;48.702;9.326;2024-01-15T02:18:11;-0.90;95.30
7844;DHT22;3967;48.702;9.326;2024-01-15T02:20:38;-0.90;95.10
7844;DHT22;3967;48.702;9.326;2024-01-15T02:23:15;-0.80;95.00
7844;DHT22;3967;48.702;9.326;2024-01-15T02:25:42;-0.90;95.10
7844;DHT22;3967;48.702;9.326;2024-01-15T02:28:12;-0.80;95.10
7844;DHT22;3967;48.702;9.326;2024-01-15T02:30:40;-0.80;94.90
7844;DHT22;3967;48.702;9.326;2024-01-15T02:33:08;-0.80;94.80
7844;DHT22;3967;48.702;9.326;2024-01-15T02:35:36;-0.60;94.90
7844;DHT22;3967;48.702;9.326;2024-01-15T02:38:06;-0.70;94.70
7844;DHT22;3967;48.702;9.326;2024-01-15T02:40:34;-0.70;94.80
7844;DHT22;3967;48.702;9.326;2024-01-15T02:43:01;-0.70;94.80
7844;DHT22;3967;48.702;9.326;2024-01-15T02:45:28;-0.70;94.90
7844;DHT22;3967;48.702;9.326;2024-01-15T02:47:55;-0.70;95.00
7844;DHT22;3967;48.702;9.326;2024-01-15T02:50:22;-0.70;95.10
7844;DHT22;3967;48.702;9.326;2024-01-15T02:52:49;-0.70;95.20
7844;DHT22;3967;48.702;9.326;2024-01-15T02:55:16;-0.60;95.00
7844;DHT22;3967;48.702;9.326;2024-01-15T02:57:43;-0.60;95.00
7844;DHT22;3967;48.702;9.326;2024-01-15T03:00:10;-0.50;94.90
7844;DHT22;3967;48.702;9.326;2024-01-15T03:02:39;-0.50;94.70
7844;DHT22;3967;48.702;9.326;2024-01-15T03:05:09;-0.50;94.60
7844;DHT22;3967;48.702;9.326;2024-01-15T03:07:36;-0.50;94.40
7844;DHT22;3967;48.702;9.326;2024-01-15T03:10:05;-0.40;94.30
7844;DHT22;3967;48.702;9.326;2024-01-15T03:12:32;-0.50;94.10
7844;DHT22;3967;48.702;9.326;2024-01-15T03:14:59;-0.60;94.20
7844;DHT22;3967;48.702;9.326;2024-01-15T03:17:26;-0.50;94.30
7844;DHT22;3967;48.702;9.326;2024-01-15T03:19:53;-0.50;94.10
7844;DHT22;3967;48.702;9.326;2024-01-15T03:22:20;-0.40;93.90
7844;DHT22;3967;48.702;9.326;2024-01-15T03:24:46;-0.40;93.70
7844;DHT22;3967;48.702;9.326;2024-01-15T03:27:13;-0.50;93.60
7844;DHT22;3967;48.702;9.326;2024-01-15T03:29:40;-0.60;93.80
7844;DHT22;3967;48.702;9.326;2024-01-15T03:32:07;-0.70;94.20
7844;DHT22;3967;48.702;9.326;2024-01-15T03:34:34;-0.70;94.20
7844;DHT22;3967;48.702;9.326;2024-01-15T03:37:01;-0.80;94.50
7844;DHT22;3967;48.702;9.326;2024-01-15T03:39:28;-0.70;94.80
7844;DHT22;3967;48.702;9.326;2024-01-15T03:41:55;-0.70;94.70
7844;DHT22;3967;48.702;9.326;2024-01-15T03:44:22;-0.70;94.50
7844;DHT22;3967;48.702;9.326;2024-01-15T03:46:48;-0.70;94.70
7844;DHT22;3967;48.702;9.326;2024-01-15T03:49:15;-0.70;94.90
7844;DHT22;3967;48.702;9.326;2024-01-15T03:51:43;-0.70;95.00
7844;DHT22;3967;48.702;9.326;2024-01-15T03:54:10;-0.70;94.90
7844;DHT22;3967;48.702;9.326;2024-01-15T03:56:36;-0.70;95.10
7844;DHT22;3967;48.702;9.326;2024-01-15T03:59:03;-0.80;95.20
7844;DHT22;3967;48.702;9.326;2024-01-15T04:01:30;-0.90;95.50
7844;DHT22;3967;48.702;9.326;2024-01-15T04:03:56;-0.80;95.90
7844;DHT22;3967;48.702;9.326;2024-01-15T04:06:23;-0.70;96.00
7844;DHT22;3967;48.702;9.326;2024-01-15T04:08:50;-0.80;95.60
7844;DHT22;3967;48.702;9.326;2024-01-15T04:11:17;-0.70;95.90
7844;DHT22;3967;48.702;9.326;2024-01-15T04:13:44;-0.70;95.90
7844;DHT22;3967;48.702;9.326;2024-01-15T04:16:11;-0.70;95.90
7844;DHT22;3967;48.702;9.326;2024-01-15T04:18:37;-0.70;95.90
7844;DHT22;3967;48.702;9.326;2024-01-15T04:21:05;-0.60;95.70
7844;DHT22;3967;48.702;9.326;2024-01-15T04:23:33;-0.60;95.80
7844;DHT22;3967;48.702;9.326;2024-01-15T04:26:00;-0.50;95.70
7844;DHT22;3967;48.702;9.326;2024-01-15T04:28:26;-0.60;95.70
7844;DHT22;3967;48.702;9.326;2024-01-15T04:30:53;-0.60;95.70
7844;DHT22;3967;48.702;9.326;2024-01-15T04:33:20;-0.60;95.80
7844;DHT22;3967;48.702;9.326;2024-01-15T04:35:47;-0.70;95.90
7844;DHT22;3967;48.702;9.326;2024-01-15T04:38:14;-0.70;96.10
7844;DHT22;3967;48.702;9.326;2024-01-15T04:40:41;-0.60;96.30
7844;DHT22;3967;48.702;9.326;2024-01-15T04:43:07;-0.70;96.60
7844;DHT22;3967;48.702;9.326;2024-01-15T04:45:34;-0.70;97.00
7844;DHT22;3967;48.702;9.326;2024-01-15T04:48:01;-0.70;97.30
7844;DHT22;3967;48.702;9.326;2024-01-15T04:50:29;-0.70;97.60
7844;DHT22;3967;48.702;9.326;2024-01-15T04:52:56;-0.60;97.60
7844;DHT22;3967;48.702;9.326;2024-01-15T04:55:23;-0.60;97.60
7844;DHT22;3967;48.702;9.326;2024-01-15T04:57:49;-0.60;97.50
7844;DHT22;3967;48.702;9.326;2024-01-15T05:00:16;-0.60;97.50
7844;DHT22;3967;48.702;9.326;2024-01-15T05:02:43;-0.60;97.30
7844;DHT22;3967;48.702;9.326;2024-01-15T05:05:10;-0.50;97.30
7844;DHT22;3967;48.702;9.326;2024-01-15T05:07:37;-0.50;97.40
7844;DHT22;3967;48.702;9.326;2024-01-15T05:10:04;-0.60;97.50
7844;DHT22;3967;48.702;9.326;2024-01-15T05:12:31;-0.50;97.40
7844;DHT22;3967;48.702;9.326;2024-01-15T05:14:57;-0.50;97.50
7844;DHT22;3967;48.702;9.326;2024-01-15T05:17:24;-0.50;98.00
7844;DHT22;3967;48.702;9.326;2024-01-15T05:19:51;-0.50;97.90
7844;DHT22;3967;48.702;9.326;2024-01-15T05:22:18;-0.40;97.70
7844;DHT22;3967;48.702;9.326;2024-01-15T05:24:45;-0.40;97.50
7844;DHT22;3967;48.702;9.326;2024-01-15T05:27:12;-0.40;97.60
7844;DHT22;3967;48.702;9.326;2024-01-15T05:29:38;-0.40;97.60
7844;DHT22;3967;48.702;9.326;2024-01-15T05:32:05;-0.40;97.50
7844;DHT22;3967;48.702;9.326;2024-01-15T05:34:32;-0.40;97.60
7844;DHT22;3967;48.702;9.326;2024-01-15T05:37:00;-0.40;97.50
7844;DHT22;3967;48.702;9.326;2024-01-15T05:39:26;-0.40;97.80
7844;DHT22;3967;48.702;9.326;2024-01-15T05:41:53;-0.30;97.90
7844;DHT22;3967;48.702;9.326;2024-01-15T05:44:20;-0.40;98.00
7844;DHT22;3967;48.702;9.326;2024-01-15T05:46:47;-0.40;98.00
7844;DHT22;3967;48.702;9.326;2024-01-15T05:49:13;-0.40;98.20
7844;DHT22;3967;48.702;9.326;2024-01-15T05:51:41;-0.40;98.20
7844;DHT22;3967;48.702;9.326;2024-01-15T05:54:07;-0.40;98.30
7844;DHT22;3967;48.702;9.326;2024-01-15T05:56:34;-0.40;98.40
7844;DHT22;3967;48.702;9.326;2024-01-15T05:59:01;-0.40;98.40
7844;DHT22;3967;48.702;9.326;2024-01-15T06:01:28;-0.40;98.50
7844;DHT22;3967;48.702;9.326;2024-01-15T06:03:55;-0.40;98.50
7844;DHT22;3967;48.702;9.326;2024-01-15T06:06:22;-0.30;98.40
7844;DHT22;3967;48.702;9.326;2024-01-15T06:08:48;-0.40;98.30
7844;DHT22;3967;48.702;9.326;2024-01-15T06:11:15;-0.30;98.30
7844;DHT22;3967;48.702;9.326;2024-01-15T06:13:42;-0.30;98.20
7844;DHT22;3967;48.702;9.326;2024-01-15T06:16:13;-0.20;98.60
7844;DHT22;3967;48.702;9.326;2024-01-15T06:18:41;0.10;98.70
7844;DHT22;3967;48.702;9.326;2024-01-15T06:21:08;-0.10;97.30
7844;DHT22;3967;48.702;9.326;2024-01-15T06:23:37;-0.10;97.30
7844;DHT22;3967;48.702;9.326;2024-01-15T06:26:04;-0.20;97.30
7844;DHT22;3967;48.702;9.326;2024-01-15T06:28:31;-0.20;97.40
7844;DHT22;3967;48.702;9.326;2024-01-15T06:30:58;-0.10;97.40
7844;DHT22;3967;48.702;9.326;2024-01-15T06:33:25;-0.20;97.50
7844;DHT22;3967;48.702;9.326;2024-01-15T06:35:52;-0.20;97.50
7844;DHT22;3967;48.702;9.326;2024-01-15T06:38:19;-0.20;97.70
7844;DHT22;3967;48.702;9.326;2024-01-15T06:40:46;-0.20;97.70
7844;DHT22;3967;48.702;9.326;2024-01-15T06:43:18;-0.10;97.70
7844;DHT22;3967;48.702;9.326;2024-01-15T06:45:45;-0.20;97.50
7844;DHT22;3967;48.702;9.326;2024-01-15T06:48:12;-0.10;97.60
7844;DHT22;3967;48.702;9.326;2024-01-15T06:50:43;-0.10;97.60
7844;DHT22;3967;48.702;9.326;2024-01-15T06:53:10;-0.10;97.60
7844;DHT22;3967;48.702;9.326;2024-01-15T06:55:38;-0.10;97.40
7844;DHT22;3967;48.702;9.326;2024-01-15T06:58:05;-0.10;97.50
7844;DHT22;3967;48.702;9.326;2024-01-15T07:00:31;-0.10;97.30
7844;DHT22;3967;48.702;9.326;2024-01-15T07:02:59;-0.10;97.10
7844;DHT22;3967;48.702;9.326;2024-01-15T07:05:25;0.00;96.90
7844;DHT22;3967;48.702;9.326;2024-01-15T07:07:53;0.10;96.60
7844;DHT22;3967;48.702;9.326;2024-01-15T07:10:19;0.00;96.40
7844;DHT22;3967;48.702;9.326;2024-01-15T07:12:46;0.00;96.30
7844;DHT22;3967;48.702;9.326;2024-01-15T07:15:13;0.00;96.00
7844;DHT22;3967;48.702;9.326;2024-01-15T07:17:41;0.00;95.70
7844;DHT22;3967;48.702;9.326;2024-01-15T07:20:09;0.00;95.40
7844;DHT22;3967;48.702;9.326;2024-01-15T07:22:36;0.10;95.30
7844;DHT22;3967;48.702;9.326;2024-01-15T07:25:04;0.10;95.00
7844;DHT22;3967;48.702;9.326;2024-01-15T07:27:32;0.10;94.80
7844;DHT22;3967;48.702;9.326;2024-01-15T07:29:59;0.00;94.40
7844;DHT22;3967;48.702;9.326;2024-01-15T07:32:29;0.10;94.00
7844;DHT22;3967;48.702;9.326;2024-01-15T07:34:56;0.20;93.60
7844;DHT22;3967;48.702;9.326;2024-01-15T07:37:23;0.20;93.10
7844;DHT22;3967;48.702;9.326;2024-01-15T07:39:49;0.20;93.10
7844;DHT22;3967;48.702;9.326;2024-01-15T07:42:16;0.20;93.00
7844;DHT22;3967;48.702;9.326;2024-01-15T07:44:43;0.30;93.00
7844;DHT22;3967;48.702;9.326;2024-01-15T07:47:11;0.40;92.90
7844;DHT22;3967;48.702;9.326;2024-01-15T07:49:38;0.30;92.90
7844;DHT22;3967;48.702;9.326;2024-01-15T07:52:05;0.30;92.90
7844;DHT22;3967;48.702;9.326;2024-01-15T07:54:32;0.30;92.90
7844;DHT22;3967;48.702;9.326;2024-01-15T07:57:00;0.20;92.80
7844;DHT22;3967;48.702;9.326;2024-01-15T07:59:27;0.30;92.90
7844;DHT22;3967;48.702;9.326;2024-01-15T08:01:54;0.40;92.70
7844;DHT22;3967;48.702;9.326;2024-01-15T08:04:21;0.30;92.40
7844;DHT22;3967;48.702;9.326;2024-01-15T08:06:48;0.30;92.40
7844;DHT22;3967;48.702;9.326;2024-01-15T08:09:15;0.30;92.20
7844;DHT22;3967;48.702;9.326;2024-01-15T08:11:43;0.30;92.30
7844;DHT22;3967;48.702;9.326;2024-01-15T08:14:10;0.40;92.10
7844;DHT22;3967;48.702;9.326;2024-01-15T08:16:38;0.40;91.90
7844;DHT22;3967;48.702;9.326;2024-01-15T08:19:05;0.40;91.70
7844;DHT22;3967;48.702;9.326;2024-01-15T08:21:32;0.50;91.60
7844;DHT22;3967;48.702;9.326;2024-01-15T08:24:00;0.50;91.40
7844;DHT22;3967;48.702;9.326;2024-01-15T08:26:30;0.50;91.30
7844;DHT22;3967;48.702;9.326;2024-01-15T08:28:57;0.50;91.40
7844;DHT22;3967;48.702;9.326;2024-01-15T08:31:24;0.50;91.20
7844;DHT22;3967;48.702;9.326;2024-01-15T08:33:51;0.40;91.20
7844;DHT22;3967;48.702;9.326;2024-01-15T08:36:18;0.50;91.30
7844;DHT22;3967;48.702;9.326;2024-01-15T08:38:45;0.40;91.20
7844;DHT22;3967;48.702;9.326;2024-01-15T08:41:12;0.40;91.40
7844;DHT22;3967;48.702;9.326;2024-01-15T08:43:39;0.50;91.40
7844;DHT22;3967;48.702;9.326;2024-01-15T08:46:06;0.50;91.20
7844;DHT22;3967;48.702;9.326;2024-01-15T08:48:34;0.60;91.40
7844;DHT22;3967;48.702;9.326;2024-01-15T08:51:01;0.60;91.20
7844;DHT22;3967;48.702;9.326;2024-01-15T08:53:28;0.60;91.20
7844;DHT22;3967;48.702;9.326;2024-01-15T08:55:54;0.70;91.20
7844;DHT22;3967;48.702;9.326;2024-01-15T08:58:23;0.70;91.00
7844;DHT22;3967;48.702;9.326;2024-01-15T09:00:50;0.80;90.90
7844;DHT22;3967;48.702;9.326;2024-01-15T09:03:18;0.90;90.80
7844;DHT22;3967;48.702;9.326;2024-01-15T09:05:45;0.90;90.50
7844;DHT22;3967;48.702;9.326;2024-01-15T09:08:11;0.90;90.30
7844;DHT22;3967;48.702;9.326;2024-01-15T09:10:38;1.00;90.30
7844;DHT22;3967;48.702;9.326;2024-01-15T09:13:07;1.00;90.10
7844;DHT22;3967;48.702;9.326;2024-01-15T09:15:34;1.10;89.60
7844;DHT22;3967;48.702;9.326;2024-01-15T09:18:01;1.00;89.20
7844;DHT22;3967;48.702;9.326;2024-01-15T09:20:33;1.00;89.40
7844;DHT22;3967;48.702;9.326;2024-01-15T09:23:00;1.00;89.20
7844;DHT22;3967;48.702;9.326;2024-01-15T09:25:26;1.20;89.00
7844;DHT22;3967;48.702;9.326;2024-01-15T09:27:53;1.20;88.50
7844;DHT22;3967;48.702;9.326;2024-01-15T09:30:20;1.10;88.30
7844;DHT22;3967;48.702;9.326;2024-01-15T09:32:47;1.20;88.30
7844;DHT22;3967;48.702;9.326;2024-01-15T09:35:15;1.10;88.40
7844;DHT22;3967;48.702;9.326;2024-01-15T09:37:42;1.20;88.50
7844;DHT22;3967;48.702;9.326;2024-01-15T09:40:14;1.20;88.30
7844;DHT22;3967;48.702;9.326;2024-01-15T09:42:43;1.20;87.90
7844;DHT22;3967;48.702;9.326;2024-01-15T09:45:10;1.30;88.40
7844;DHT22;3967;48.702;9.326;2024-01-15T09:47:38;1.40;87.60
7844;DHT22;3967;48.702;9.326;2024-01-15T09:50:10;1.40;87.20
7844;DHT22;3967;48.702;9.326;2024-01-15T09:52:39;1.40;86.70
7844;DHT22;3967;48.702;9.326;2024-01-15T09:55:08;1.50;86.50
7844;DHT22;3967;48.702;9.326;2024-01-15T09:57:36;1.40;86.40
7844;DHT22;3967;48.702;9.326;2024-01-15T10:00:04;1.40;86.40
7844;DHT22;3967;48.702;9.326;2024-01-15T10:02:33;1.40;86.30
7844;DHT22;3967;48.702;9.326;2024-01-15T10:05:00;1.60;86.40
7844;DHT22;3967;48.702;9.326;2024-01-15T10:07:29;1.50;86.20
7844;DHT22;3967;48.702;9.326;2024-01-15T10:09:57;1.50;86.10
7844;DHT22;3967;48.702;9.326;2024-01-15T10:12:24;1.50;85.90
7844;DHT22;3967;48.702;9.326;2024-01-15T10:14:53;1.50;86.00
7844;DHT22;3967;48.702;9.326;2024-01-15T10:17:21;1.60;85.90
7844;DHT22;3967;48.702;9.326;2024-01-15T10:19:48;1.50;85.90
7844;DHT22;3967;48.702;9.326;2024-01-15T10:22:16;1.50;85.80
7844;DHT22;3967;48.702;9.326;2024-01-15T10:24:45;1.60;85.80
7844;DHT22;3967;48.702;9.326;2024-01-15T10:27:15;1.60;85.70
7844;DHT22;3967;48.702;9.326;2024-01-15T10:29:42;1.60;85.80
7844;DHT22;3967;48.702;9.326;2024-01-15T10:32:10;1.60;85.70
7844;DHT22;3967;48.702;9.326;2024-01-15T10:34:38;1.70;85.60
7844;DHT22;3967;48.702;9.326;2024-01-15T10:37:07;1.60;85.60
7844;DHT22;3967;48.702;9.326;2024-01-15T10:39:35;1.70;85.80
7844;DHT22;3967;48.702;9.326;2024-01-15T10:42:03;1.80;85.60
7844;DHT22;3967;48.702;9.326;2024-01-15T10:44:30;1.70;85.40
7844;DHT22;3967;48.702;9.326;2024-01-15T10:46:57;1.70;85.60
7844;DHT22;3967;48.702;9.326;2024-01-15T10:49:24;1.70;85.70
7844;DHT22;3967;48.702;9.326;2024-01-15T10:51:59;1.70;85.90
7844;DHT22;3967;48.702;9.326;2024-01-15T10:54:27;1.80;86.10
7844;DHT22;3967;48.702;9.326;2024-01-15T10:56:56;1.70;86.00
7844;DHT22;3967;48.702;9.326;2024-01-15T10:59:23;1.70;86.50
7844;DHT22;3967;48.702;9.326;2024-01-15T11:01:51;1.70;86.50
7844;DHT22;3967;48.702;9.326;2024-01-15T11:04:22;1.60;86.60
7844;DHT22;3967;48.702;9.326;2024-01-15T11:06:53;1.70;86.70
7844;DHT22;3967;48.702;9.326;2024-01-15T11:09:23;1.60;86.80
7844;DHT22;3967;48.702;9.326;2024-01-15T11:11:53;1.60;87.20
7844;DHT22;3967;48.702;9.326;2024-01-15T11:14:44;1.70;87.10
7844;DHT22;3967;48.702;9.326;2024-01-15T11:17:12;1.90;86.80
7844;DHT22;3967;48.702;9.326;2024-01-15T11:19:50;1.80;86.60
7844;DHT22;3967;48.702;9.326;2024-01-15T11:25:02;1.80;87.10
7844;DHT22;3967;48.702;9.326;2024-01-15T11:27:44;1.80;88.20
7844;DHT22;3967;48.702;9.326;2024-01-15T11:30:14;1.80;88.80
7844;DHT22;3967;48.702;9.326;2024-01-15T11:32:41;1.80;89.00
7844;DHT22;3967;48.702;9.326;2024-01-15T11:35:10;1.90;89.40
7844;DHT22;3967;48.702;9.326;2024-01-15T11:42:59;1.90;90.10
7844;DHT22;3967;48.702;9.326;2024-01-15T11:45:27;1.90;90.00
7844;DHT22;3967;48.702;9.326;2024-01-15T11:50:35;2.00;89.40
7844;DHT22;3967;48.702;9.326;2024-01-15T11:55:44;2.00;89.90
7844;DHT22;3967;48.702;9.326;2024-01-15T11:58:12;2.00;90.20
7844;DHT22;3967;48.702;9.326;2024-01-15T12:00:43;2.00;90.50
7844;DHT22;3967;48.702;9.326;2024-01-15T12:03:11;1.90;90.50
7844;DHT22;3967;48.702;9.326;2024-01-15T12:05:38;1.80;90.80
7844;DHT22;3967;48.702;9.326;2024-01-15T12:08:06;1.90;90.90
7844;DHT22;3967;48.702;9.326;2024-01-15T12:10:39;1.90;90.80
7844;DHT22;3967;48.702;9.326;2024-01-15T12:13:12;1.90;90.80
7844;DHT22;3967;48.702;9.326;2024-01-15T12:15:45;1.80;90.90
7844;DHT22;3967;48.702;9.326;2024-01-15T12:18:13;1.80;91.40
7844;DHT22;3967;48.702;9.326;2024-01-15T12:20:42;1.70;92.30
7844;DHT22;3967;48.702;9.326;2024-01-15T12:23:10;1.60;94.10
7844;DHT22;3967;48.702;9.326;2024-01-15T12:25:37;1.50;95.50
7844;DHT22;3967;48.702;9.326;2024-01-15T12:28:05;1.50;96.70
7844;DHT22;3967;48.702;9.326;2024-01-15T12:30:33;1.50;97.70
7844;DHT22;3967;48.702;9.326;2024-01-15T12:33:02;1.50;98.30
7844;DHT22;3967;48.702;9.326;2024-01-15T12:35:31;1.40;99.20
7844;DHT22;3967;48.702;9.326;2024-01-15T12:38:00;1.50;99.90
7844;DHT22;3967;48.702;9.326;2024-01-15T12:40:30;1.60;99.90
7844;DHT22;3967;48.702;9.326;2024-01-15T12:42:58;1.50;99.90
7844;DHT22;3967;48.702;9.326;2024-01-15T12:45:25;1.50;99.90
7844;DHT22;3967;48.702;9.326;2024-01-15T12:47:52;1.50;99.90
7844;DHT22;3967;48.702;9.326;2024-01-15T12:50:19;1.60;99.90
7844;DHT22;3967;48.702;9.326;2024-01-15T12:52:50;1.60;99.90
7844;DHT22;3967;48.702;9.326;2024-01-15T12:55:17;1.60;99.90
7844;DHT22;3967;48.702;9.326;2024-01-15T12:57:43;1.50;99.90
7844;DHT22;3967;48.702;9.326;2024-01-15T13:00:12;1.40;99.90
7844;DHT22;3967;48.702;9.326;2024-01-15T13:02:42;1.30;99.90
7844;DHT22;3967;48.702;9.326;2024-01-15T13:05:10;1.30;99.90
7844;DHT22;3967;48.702;9.326;2024-01-15T13:07:40;1.40;99.90
7844;DHT22;3967;48.702;9.326;2024-01-15T13:10:07;1.40;99.90
7844;DHT22;3967;48.702;9.326;2024-01-15T13:12:37;1.40;99.90
7844;DHT22;3967;48.702;9.326;2024-01-15T13:15:04;1.40;99.90
7844;DHT22;3967;48.702;9.326;2024-01-15T13:17:31;1.40;99.90
7844;DHT22;3967;48.702;9.326;2024-01-15T13:19:58;1.40;99.90
7844;DHT22;3967;48.702;9.326;2024-01-15T13:22:26;1.50;99.90
7844;DHT22;3967;48.702;9.326;2024-01-15T13:24:58;1.50;99.90
7844;DHT22;3967;48.702;9.326;2024-01-15T13:27:25;1.40;99.90
7844;DHT22;3967;48.702;9.326;2024-01-15T13:29:52;1.50;99.90
7844;DHT22;3967;48.702;9.326;2024-01-15T13:32:24;1.50;99.90
7844;DHT22;3967;48.702;9.326;2024-01-15T13:34:53;1.50;99.90
7844;DHT22;3967;48.702;9.326;2024-01-15T13:37:20;1.60;99.90
7844;DHT22;3967;48.702;9.326;2024-01-15T13:39:47;1.50;99.90
7844;DHT22;3967;48.702;9.326;2024-01-15T13:42:14;1.50;99.90
7844;DHT22;3967;48.702;9.326;2024-01-15T13:44:42;1.50;99.90
7844;DHT22;3967;48.702;9.326;2024-01-15T13:47:09;1.40;99.90
7844;DHT22;3967;48.702;9.326;2024-01-15T13:49:36;1.50;99.90
7844;DHT22;3967;48.702;9.326;2024-01-15T13:52:04;1.50;99.90
7844;DHT22;3967;48.702;9.326;2024-01-15T13:54:31;1.40;99.90
7844;DHT22;3967;48.702;9.326;2024-01-15T13:57:15;1.40;99.90
7844;DHT22;3967;48.702;9.326;2024-01-15T13:59:42;1.40;99.90
7844;DHT22;3967;48.702;9.326;2024-01-15T14:02:09;1.40;99.90
7844;DHT22;3967;48.702;9.326;2024-01-15T14:04:37;1.50;99.90
7844;DHT22;3967;48.702;9.326;2024-01-15T14:07:04;1.60;99.90
7844;DHT22;3967;48.702;9.326;2024-01-15T14:09:31;1.60;99.90
7844;DHT22;3967;48.702;9.326;2024-01-15T14:11:59;1.50;99.90
7844;DHT22;3967;48.702;9.326;2024-01-15T14:14:26;1.50;99.90
7844;DHT22;3967;48.702;9.326;2024-01-15T14:16:53;1.50;99.90
7844;DHT22;3967;48.702;9.326;2024-01-15T14:19:19;1.50;99.90
7844;DHT22;3967;48.702;9.326;2024-01-15T14:21:48;1.40;99.90
7844;DHT22;3967;48.702;9.326;2024-01-15T14:24:15;1.40;99.90
7844;DHT22;3967;48.702;9.326;2024-01-15T14:26:43;1.40;99.90
7844;DHT22;3967;48.702;9.326;2024-01-15T14:29:10;1.50;99.90
7844;DHT22;3967;48.702;9.326;2024-01-15T14:31:37;1.50;99.90
7844;DHT22;3967;48.702;9.326;2024-01-15T14:34:04;1.50;99.90
7844;DHT22;3967;48.702;9.326;2024-01-15T14:36:31;1.50;99.90
7844;DHT22;3967;48.702;9.326;2024-01-15T14:38:58;1.50;99.90
7844;DHT22;3967;48.702;9.326;2024-01-15T14:41:25;1.40;99.90
7844;DHT22;3967;48.702;9.326;2024-01-15T14:43:53;1.40;99.90
7844;DHT22;3967;48.702;9.326;2024-01-15T14:46:20;1.30;99.90
7844;DHT22;3967;48.702;9.326;2024-01-15T14:48:47;1.40;99.90
7844;DHT22;3967;48.702;9.326;2024-01-15T14:51:14;1.50;99.90
7844;DHT22;3967;48.702;9.326;2024-01-15T14:53:41;1.30;99.90
7844;DHT22;3967;48.702;9.326;2024-01-15T14:56:09;1.30;99.90
7844;DHT22;3967;48.702;9.326;2024-01-15T14:58:36;1.40;99.90
7844;DHT22;3967;48.702;9.326;2024-01-15T15:01:03;1.40;99.90
7844;DHT22;3967;48.702;9.326;2024-01-15T15:03:30;1.20;99.90
7844;DHT22;3967;48.702;9.326;2024-01-15T15:05:57;1.10;99.90
7844;DHT22;3967;48.702;9.326;2024-01-15T15:08:24;1.10;99.90
7844;DHT22;3967;48.702;9.326;2024-01-15T15:10:51;1.10;99.90
7844;DHT22;3967;48.702;9.326;2024-01-15T15:13:18;1.00;99.90
7844;DHT22;3967;48.702;9.326;2024-01-15T15:15:59;0.90;99.90
7844;DHT22;3967;48.702;9.326;2024-01-15T15:18:26;0.90;99.90
7844;DHT22;3967;48.702;9.326;2024-01-15T15:20:53;0.80;99.90
7844;DHT22;3967;48.702;9.326;2024-01-15T15:23:22;0.80;99.90
7844;DHT22;3967;48.702;9.326;2024-01-15T15:25:49;0.70;99.90
7844;DHT22;3967;48.702;9.326;2024-01-15T15:28:16;0.70;99.90
7844;DHT22;3967;48.702;9.326;2024-01-15T15:30:43;0.70;99.90
7844;DHT22;3967;48.702;9.326;2024-01-15T15:33:10;0.80;99.90
7844;DHT22;3967;48.702;9.326;2024-01-15T15:35:37;0.90;99.90
7844;DHT22;3967;48.702;9.326;2024-01-15T15:38:04;1.00;99.90
7844;DHT22;3967;48.702;9.326;2024-01-15T15:40:30;1.00;99.90
7844;DHT22;3967;48.702;9.326;2024-01-15T15:42:57;1.00;99.90
7844;DHT22;3967;48.702;9.326;2024-01-15T15:45:24;1.00;99.90
7844;DHT22;3967;48.702;9.326;2024-01-15T15:47:51;0.90;99.90
7844;DHT22;3967;48.702;9.326;2024-01-15T15:50:18;0.90;99.90
7844;DHT22;3967;48.702;9.326;2024-01-15T15:52:45;0.90;99.90
7844;DHT22;3967;48.702;9.326;2024-01-15T15:55:12;0.80;99.90
7844;DHT22;3967;48.702;9.326;2024-01-15T15:57:39;0.80;99.90
7844;DHT22;3967;48.702;9.326;2024-01-15T16:00:06;0.80;99.90
7844;DHT22;3967;48.702;9.326;2024-01-15T16:02:33;0.80;99.90
7844;DHT22;3967;48.702;9.326;2024-01-15T16:05:01;0.90;99.90
7844;DHT22;3967;48.702;9.326;2024-01-15T16:07:31;0.80;99.90
7844;DHT22;3967;48.702;9.326;2024-01-15T16:09:58;0.90;99.90
7844;DHT22;3967;48.702;9.326;2024-01-15T16:12:25;1.00;99.90
7844;DHT22;3967;48.702;9.326;2024-01-15T16:14:52;1.00;99.90
7844;DHT22;3967;48.702;9.326;2024-01-15T16:17:19;1.00;99.90
7844;DHT22;3967;48.702;9.326;2024-01-15T16:20:06;1.00;99.90
7844;DHT22;3967;48.702;9.326;2024-01-15T16:22:53;1.00;99.90
7844;DHT22;3967;48.702;9.326;2024-01-15T16:25:40;1.00;99.90